Time;durP1;ratioP1;P1;durP2;ratioP2;P2;SDS_P1;SDS_P2;PMS_P1;PMS_P2;Temp;Humidity;BMP_temperature;BMP_pressure;BME280_temperature;BME280_humidity;BME280_pressure;Samples;Min_cycle;Max_cycle;Signal;HPM_P1;HPM_P2
2021/06/04 00:00:21;;;;;;;77.03;57.17;;;;;;;;;;5026295;28;20724;-69
2021/06/04 00:02:47;;;;;;;74.70;56.60;;;;;;;;;;5015026;28;20684;-70
2021/06/04 00:05:16;;;;;;;76.65;54.45;;;;;;;;;;5028283;28;20213;-70
2021/06/04 00:07:42;;;;;;;74.82;55.17;;;;;;;;;;5015247;28;20711;-69
2021/06/04 00:10:17;;;;;;;71.93;52.88;;;;;;;;;;5026138;28;20270;-69
2021/06/04 00:12:43;;;;;;;70.93;51.55;;;;;;;;;;5031858;28;20627;-69
2021/06/04 00:15:18;;;;;;;67.30;50.00;;;;;;;;;;5025068;28;20197;-69
2021/06/04 00:17:44;;;;;;;63.28;46.28;;;;;;;;;;5023192;28;20181;-69
2021/06/04 00:20:15;;;;;;;60.75;47.38;;;;;;;;;;5015561;28;20204;-69
2021/06/04 00:22:40;;;;;;;59.88;47.38;;;;;;;;;;5022495;28;20189;-69
2021/06/04 00:25:07;;;;;;;65.88;46.60;;;;;;;;;;5011386;28;20244;-69
2021/06/04 00:27:33;;;;;;;63.90;46.25;;;;;;;;;;5024968;28;20229;-69
2021/06/04 00:29:58;;;;;;;60.95;45.65;;;;;;;;;;5015693;28;20661;-69
2021/06/04 00:32:24;;;;;;;59.95;44.42;;;;;;;;;;5024033;28;20185;-70
2021/06/04 00:34:51;;;;;;;60.60;46.67;;;;;;;;;;5009660;28;20193;-70
2021/06/04 00:37:18;;;;;;;56.95;43.08;;;;;;;;;;5021908;28;21584;-69
2021/06/04 00:39:44;;;;;;;57.30;42.70;;;;;;;;;;5016279;28;20658;-69
2021/06/04 00:42:19;;;;;;;65.30;44.22;;;;;;;;;;5021992;28;20219;-69
2021/06/04 00:44:46;;;;;;;58.25;40.97;;;;;;;;;;5016719;28;20291;-69
2021/06/04 00:47:13;;;;;;;62.65;43.40;;;;;;;;;;5021777;28;20202;-69
2021/06/04 00:49:39;;;;;;;58.40;43.97;;;;;;;;;;5010225;28;20209;-69
2021/06/04 00:52:07;;;;;;;63.33;46.08;;;;;;;;;;5023586;28;20281;-69
2021/06/04 00:54:33;;;;;;;64.45;46.00;;;;;;;;;;5019052;28;20534;-69
2021/06/04 00:56:59;;;;;;;57.45;42.60;;;;;;;;;;5008284;28;20195;-69
2021/06/04 00:59:29;;;;;;;58.28;41.35;;;;;;;;;;5017328;28;20217;-69
2021/06/04 01:01:56;;;;;;;57.92;41.50;;;;;;;;;;5015864;28;20734;-69
2021/06/04 01:04:25;;;;;;;55.53;41.70;;;;;;;;;;5021839;28;20205;-69
2021/06/04 01:06:56;;;;;;;60.83;43.63;;;;;;;;;;5014546;28;20183;-69
2021/06/04 01:09:38;;;;;;;58.88;42.70;;;;;;;;;;5014820;28;20192;-69
2021/06/04 01:12:31;;;;;;;60.58;44.33;;;;;;;;;;5015659;28;20185;-69
2021/06/04 01:15:25;;;;;;;61.22;42.75;;;;;;;;;;5018032;28;20704;-69
2021/06/04 01:18:21;;;;;;;58.47;40.83;;;;;;;;;;5018164;28;20190;-69
2021/06/04 01:20:51;;;;;;;61.95;43.15;;;;;;;;;;5021187;28;20236;-69
2021/06/04 01:23:58;;;;;;;60.55;42.75;;;;;;;;;;5011771;28;20591;-69
2021/06/04 01:26:29;;;;;;;58.20;41.03;;;;;;;;;;5011896;28;20542;-69
2021/06/04 01:29:03;;;;;;;58.90;42.35;;;;;;;;;;5029193;28;20191;-69
2021/06/04 01:31:41;;;;;;;60.95;44.08;;;;;;;;;;5014986;28;20190;-69
2021/06/04 01:34:28;;;;;;;60.40;42.92;;;;;;;;;;5023145;28;20614;-69
2021/06/04 01:37:01;;;;;;;61.47;43.35;;;;;;;;;;5011858;28;20213;-69
2021/06/04 01:39:30;;;;;;;64.38;45.58;;;;;;;;;;5020137;28;20188;-69
2021/06/04 01:41:59;;;;;;;64.93;44.33;;;;;;;;;;5022078;28;20654;-69
2021/06/04 01:44:30;;;;;;;65.45;45.35;;;;;;;;;;5019022;28;20221;-69
2021/06/04 01:47:01;;;;;;;64.47;45.53;;;;;;;;;;5025299;28;20288;-69
2021/06/04 01:49:31;;;;;;;70.28;47.08;;;;;;;;;;5016630;28;20646;-69
2021/06/04 01:52:27;;;;;;;66.78;45.97;;;;;;;;;;5023839;28;20178;-69
2021/06/04 01:55:01;;;;;;;66.95;46.53;;;;;;;;;;5015299;28;20202;-69
2021/06/04 01:57:31;;;;;;;63.45;45.15;;;;;;;;;;5023951;28;20174;-69
2021/06/04 01:59:57;;;;;;;65.40;45.25;;;;;;;;;;5015556;28;20273;-69
2021/06/04 02:02:25;;;;;;;62.97;44.92;;;;;;;;;;5022099;28;20293;-69
2021/06/04 02:04:54;;;;;;;69.03;46.35;;;;;;;;;;5015999;28;20210;-69
2021/06/04 02:07:26;;;;;;;63.08;44.90;;;;;;;;;;5021864;28;20582;-69
2021/06/04 02:09:52;;;;;;;60.88;43.72;;;;;;;;;;5017418;28;20259;-69
2021/06/04 02:12:18;;;;;;;64.60;44.95;;;;;;;;;;5022133;28;20290;-69
2021/06/04 02:14:48;;;;;;;66.85;46.58;;;;;;;;;;5013412;28;20305;-69
2021/06/04 02:17:30;;;;;;;66.57;46.63;;;;;;;;;;5014983;28;20586;-69
2021/06/04 02:20:11;;;;;;;66.53;45.42;;;;;;;;;;5017992;28;20269;-69
2021/06/04 02:22:49;;;;;;;70.32;47.58;;;;;;;;;;5026095;28;20579;-69
2021/06/04 02:25:42;;;;;;;72.10;49.10;;;;;;;;;;5015673;28;20296;-69
2021/06/04 02:28:23;;;;;;;77.68;47.85;;;;;;;;;;5022151;28;20183;-69
2021/06/04 02:31:01;;;;;;;70.35;46.10;;;;;;;;;;5015109;28;20247;-69
2021/06/04 02:33:34;;;;;;;64.55;46.22;;;;;;;;;;5031359;28;20190;-69
2021/06/04 02:36:08;;;;;;;70.20;47.35;;;;;;;;;;5016370;28;20189;-69
2021/06/04 02:38:54;;;;;;;74.85;50.15;;;;;;;;;;5025675;28;20197;-69
2021/06/04 02:41:52;;;;;;;68.03;46.97;;;;;;;;;;5015007;28;20198;-69
2021/06/04 02:44:29;;;;;;;71.03;48.88;;;;;;;;;;5022275;28;20218;-74
2021/06/04 02:46:59;;;;;;;81.82;49.67;;;;;;;;;;5020968;28;20205;-70
2021/06/04 02:49:27;;;;;;;73.60;49.95;;;;;;;;;;5023580;28;20221;-70
2021/06/04 02:52:09;;;;;;;79.25;52.05;;;;;;;;;;5019367;28;20198;-70
2021/06/04 02:54:40;;;;;;;72.28;49.63;;;;;;;;;;5026681;28;20186;-70
2021/06/04 02:57:15;;;;;;;69.55;48.67;;;;;;;;;;5016909;28;20193;-70
2021/06/04 02:59:44;;;;;;;72.43;48.78;;;;;;;;;;5019517;28;20526;-70
2021/06/04 03:02:13;;;;;;;71.03;49.50;;;;;;;;;;5016925;28;20213;-70
2021/06/04 03:04:42;;;;;;;80.65;52.60;;;;;;;;;;5025492;28;20556;-70
2021/06/04 03:07:19;;;;;;;76.13;51.22;;;;;;;;;;5017073;28;20194;-70
2021/06/04 03:09:44;;;;;;;85.07;53.63;;;;;;;;;;5020898;28;20276;-70
2021/06/04 03:12:21;;;;;;;74.82;51.53;;;;;;;;;;5014797;28;20708;-70
2021/06/04 03:14:49;;;;;;;80.70;51.55;;;;;;;;;;5024166;28;20201;-70
2021/06/04 03:17:16;;;;;;;70.65;48.78;;;;;;;;;;5015148;28;20247;-70
2021/06/04 03:19:42;;;;;;;71.45;47.13;;;;;;;;;;5024365;28;20269;-70
2021/06/04 03:22:27;;;;;;;68.47;48.70;;;;;;;;;;5022321;28;20708;-70
2021/06/04 03:24:54;;;;;;;67.55;48.42;;;;;;;;;;5024621;28;20214;-70
2021/06/04 03:27:21;;;;;;;76.32;48.70;;;;;;;;;;5027420;28;20186;-68
2021/06/04 03:29:48;;;;;;;72.38;48.20;;;;;;;;;;5015692;28;20722;-68
2021/06/04 03:32:15;;;;;;;67.80;47.88;;;;;;;;;;5017013;28;20193;-68
2021/06/04 03:34:43;;;;;;;69.78;49.33;;;;;;;;;;5016369;28;20540;-68
2021/06/04 03:37:10;;;;;;;81.75;53.00;;;;;;;;;;5024439;28;20629;-68
2021/06/04 03:39:38;;;;;;;78.25;53.45;;;;;;;;;;5016803;28;20194;-68
2021/06/04 03:42:07;;;;;;;72.88;51.42;;;;;;;;;;5023940;28;20230;-68
2021/06/04 03:44:36;;;;;;;70.30;48.65;;;;;;;;;;5016126;28;20206;-68
2021/06/04 03:47:03;;;;;;;66.65;46.47;;;;;;;;;;5025197;28;20193;-70
2021/06/04 03:49:28;;;;;;;66.07;46.83;;;;;;;;;;5017180;28;20705;-70
2021/06/04 03:51:56;;;;;;;69.22;48.70;;;;;;;;;;5025046;28;20324;-70
2021/06/04 03:54:30;;;;;;;74.45;50.30;;;;;;;;;;5012680;28;20183;-70
2021/06/04 03:56:57;;;;;;;76.47;50.85;;;;;;;;;;5032532;28;20194;-70
2021/06/04 03:59:23;;;;;;;76.03;50.80;;;;;;;;;;5017798;28;22114;-68
2021/06/04 04:01:57;;;;;;;73.45;51.45;;;;;;;;;;5023241;28;20201;-68
2021/06/04 04:04:23;;;;;;;66.63;46.78;;;;;;;;;;5019669;28;20206;-70
2021/06/04 04:06:49;;;;;;;68.00;46.72;;;;;;;;;;5021463;28;20196;-70
2021/06/04 04:09:15;;;;;;;65.50;47.25;;;;;;;;;;5019717;28;20190;-68
2021/06/04 04:11:42;;;;;;;65.80;47.35;;;;;;;;;;5017134;28;20218;-69
2021/06/04 04:14:09;;;;;;;63.58;45.50;;;;;;;;;;5022341;28;20248;-68
2021/06/04 04:16:34;;;;;;;63.05;45.92;;;;;;;;;;5018540;28;20584;-68
2021/06/04 04:18:59;;;;;;;67.43;47.17;;;;;;;;;;5027306;28;20224;-68
2021/06/04 04:21:26;;;;;;;63.90;46.20;;;;;;;;;;5016367;28;20201;-68
2021/06/04 04:23:58;;;;;;;61.03;44.50;;;;;;;;;;5024216;28;20229;-70
2021/06/04 04:26:28;;;;;;;64.90;44.15;;;;;;;;;;5012037;28;20204;-68
2021/06/04 04:28:53;;;;;;;57.15;43.10;;;;;;;;;;5025386;28;20194;-68
2021/06/04 04:31:23;;;;;;;60.15;44.30;;;;;;;;;;5016280;28;20198;-68
2021/06/04 04:33:49;;;;;;;58.92;44.20;;;;;;;;;;5024918;28;20189;-68
2021/06/04 04:36:17;;;;;;;66.70;48.55;;;;;;;;;;5015400;28;20295;-69
2021/06/04 04:38:42;;;;;;;65.53;46.72;;;;;;;;;;5021434;28;20193;-69
2021/06/04 04:41:09;;;;;;;65.72;46.03;;;;;;;;;;5016206;28;20182;-69
2021/06/04 04:43:40;;;;;;;60.58;44.28;;;;;;;;;;5020085;28;20604;-71
2021/06/04 04:46:07;;;;;;;63.63;45.50;;;;;;;;;;5022068;28;20644;-69
2021/06/04 04:48:33;;;;;;;58.78;44.50;;;;;;;;;;5013341;28;20197;-69
2021/06/04 04:50:59;;;;;;;64.03;46.85;;;;;;;;;;5026988;28;20186;-68
2021/06/04 04:53:25;;;;;;;58.50;43.63;;;;;;;;;;5013775;28;20236;-68
2021/06/04 04:55:51;;;;;;;60.22;44.15;;;;;;;;;;5025861;28;20216;-69
2021/06/04 04:58:17;;;;;;;54.70;40.20;;;;;;;;;;5016089;28;20230;-69
2021/06/04 05:00:43;;;;;;;57.85;43.38;;;;;;;;;;5025724;28;20685;-69
2021/06/04 05:03:10;;;;;;;60.30;41.88;;;;;;;;;;5014879;28;20194;-69
2021/06/04 05:05:37;;;;;;;61.13;44.78;;;;;;;;;;5021465;28;20213;-69
2021/06/04 05:08:03;;;;;;;56.05;42.90;;;;;;;;;;5015521;28;20260;-69
2021/06/04 05:10:30;;;;;;;60.20;42.33;;;;;;;;;;5026283;28;20216;-70
2021/06/04 05:12:55;;;;;;;61.05;44.10;;;;;;;;;;5014521;28;20197;-70
2021/06/04 05:15:25;;;;;;;61.70;44.35;;;;;;;;;;5023810;28;20524;-70
2021/06/04 05:17:51;;;;;;;65.53;44.88;;;;;;;;;;5024270;28;20198;-70
2021/06/04 05:20:18;;;;;;;63.40;45.42;;;;;;;;;;5010207;28;20279;-70
2021/06/04 05:22:43;;;;;;;64.55;46.05;;;;;;;;;;5021028;28;20218;-70
2021/06/04 05:25:12;;;;;;;65.22;46.45;;;;;;;;;;5010647;28;20695;-70
2021/06/04 05:27:38;;;;;;;57.85;44.08;;;;;;;;;;5025321;28;20190;-71
2021/06/04 05:30:08;;;;;;;65.07;47.60;;;;;;;;;;5014022;28;20190;-70
2021/06/04 05:32:33;;;;;;;63.47;47.05;;;;;;;;;;5025090;28;20198;-70
2021/06/04 05:34:58;;;;;;;61.55;45.58;;;;;;;;;;5010704;28;20190;-70
2021/06/04 05:37:24;;;;;;;63.95;45.22;;;;;;;;;;5017620;28;20197;-70
2021/06/04 05:39:49;;;;;;;64.57;47.20;;;;;;;;;;5010595;28;20218;-71
2021/06/04 05:42:14;;;;;;;60.15;41.88;;;;;;;;;;5025928;28;20650;-70
2021/06/04 05:44:42;;;;;;;57.55;43.85;;;;;;;;;;5013770;28;20218;-71
2021/06/04 05:47:11;;;;;;;60.15;42.25;;;;;;;;;;5021191;28;20256;-70
2021/06/04 05:49:36;;;;;;;54.67;41.30;;;;;;;;;;5008926;28;20190;-70
2021/06/04 05:52:08;;;;;;;53.80;38.55;;;;;;;;;;5022842;28;20193;-71
2021/06/04 05:54:42;;;;;;;54.90;38.30;;;;;;;;;;5025025;28;20190;-70
2021/06/04 05:57:08;;;;;;;52.20;37.72;;;;;;;;;;5028399;28;20179;-70
2021/06/04 05:59:33;;;;;;;55.75;38.63;;;;;;;;;;4337470;28;10000793;-70
2021/06/04 06:01:59;;;;;;;51.30;38.95;;;;;;;;;;5014977;28;20673;-71
2021/06/04 06:04:24;;;;;;;62.17;40.47;;;;;;;;;;5023379;28;20633;-71
2021/06/04 06:06:52;;;;;;;51.70;38.25;;;;;;;;;;5016493;28;20194;-70
2021/06/04 06:09:17;;;;;;;53.97;39.75;;;;;;;;;;5020279;28;20197;-71
2021/06/04 06:11:44;;;;;;;51.90;38.85;;;;;;;;;;5021321;28;20185;-71
2021/06/04 06:14:10;;;;;;;52.53;37.70;;;;;;;;;;5023701;28;20634;-70
2021/06/04 06:16:36;;;;;;;52.92;38.17;;;;;;;;;;5016647;28;20281;-70
2021/06/04 06:19:03;;;;;;;51.70;38.45;;;;;;;;;;5022286;28;20781;-71
2021/06/04 06:21:28;;;;;;;58.50;38.33;;;;;;;;;;5019927;28;20217;-70
2021/06/04 06:23:54;;;;;;;50.83;36.83;;;;;;;;;;5023504;28;20277;-71
2021/06/04 06:26:26;;;;;;;51.63;36.28;;;;;;;;;;5018295;28;20235;-71
2021/06/04 06:28:52;;;;;;;51.25;34.95;;;;;;;;;;5022200;28;20398;-71
2021/06/04 06:31:22;;;;;;;52.85;36.83;;;;;;;;;;5019553;28;20208;-71
2021/06/04 06:33:49;;;;;;;50.10;35.90;;;;;;;;;;5013214;28;20730;-71
2021/06/04 06:36:19;;;;;;;51.42;37.88;;;;;;;;;;5020296;28;20634;-70
2021/06/04 06:38:46;;;;;;;52.80;37.10;;;;;;;;;;5016150;28;20252;-70
2021/06/04 06:41:12;;;;;;;49.55;36.42;;;;;;;;;;5027962;28;20592;-70
2021/06/04 06:43:39;;;;;;;53.50;36.72;;;;;;;;;;5014365;28;20252;-71
2021/06/04 06:46:07;;;;;;;48.90;35.85;;;;;;;;;;5020165;28;20194;-71
2021/06/04 06:48:34;;;;;;;52.40;36.33;;;;;;;;;;5029712;28;20553;-70
2021/06/04 06:51:00;;;;;;;46.13;36.63;;;;;;;;;;5023061;28;20187;-72
2021/06/04 06:53:26;;;;;;;49.22;35.65;;;;;;;;;;5012710;28;20194;-70
2021/06/04 06:55:53;;;;;;;48.92;35.97;;;;;;;;;;5018023;28;20286;-70
2021/06/04 06:58:20;;;;;;;47.15;35.78;;;;;;;;;;5013907;28;20298;-71
2021/06/04 07:00:48;;;;;;;48.00;35.40;;;;;;;;;;5022416;28;20575;-71
2021/06/04 07:03:23;;;;;;;48.58;35.60;;;;;;;;;;5013700;28;20574;-70
2021/06/04 07:05:49;;;;;;;48.63;35.28;;;;;;;;;;5022859;28;20547;-70
2021/06/04 07:08:14;;;;;;;45.78;35.25;;;;;;;;;;5023585;28;20672;-70
2021/06/04 07:10:40;;;;;;;48.42;34.35;;;;;;;;;;5013431;28;20190;-71
2021/06/04 07:13:09;;;;;;;45.35;31.58;;;;;;;;;;5036886;28;20199;-71
2021/06/04 07:15:34;;;;;;;41.38;31.48;;;;;;;;;;5015967;28;20699;-71
2021/06/04 07:18:00;;;;;;;43.53;32.45;;;;;;;;;;5024217;28;20273;-71
2021/06/04 07:20:31;;;;;;;44.17;31.98;;;;;;;;;;5012035;28;20193;-72
2021/06/04 07:22:58;;;;;;;45.15;31.33;;;;;;;;;;5025313;28;20194;-70
2021/06/04 07:25:30;;;;;;;42.10;31.67;;;;;;;;;;5015809;28;20570;-71
2021/06/04 07:27:56;;;;;;;38.63;30.27;;;;;;;;;;5018625;28;20677;-71
2021/06/04 07:30:26;;;;;;;42.78;30.38;;;;;;;;;;5014507;28;20198;-71
2021/06/04 07:32:52;;;;;;;41.83;30.02;;;;;;;;;;5020484;28;20190;-71
2021/06/04 07:35:20;;;;;;;44.20;30.00;;;;;;;;;;5022225;28;20188;-70
2021/06/04 07:37:45;;;;;;;43.63;29.77;;;;;;;;;;5027705;28;20222;-70
2021/06/04 07:40:16;;;;;;;41.47;30.63;;;;;;;;;;5012168;28;20275;-70
2021/06/04 07:42:42;;;;;;;40.53;29.73;;;;;;;;;;5026609;28;20253;-70
2021/06/04 07:45:08;;;;;;;41.15;28.85;;;;;;;;;;5026915;28;20194;-71
2021/06/04 07:47:34;;;;;;;40.53;29.02;;;;;;;;;;5014758;28;20646;-70
2021/06/04 07:50:00;;;;;;;38.90;29.88;;;;;;;;;;5020826;28;20182;-71
2021/06/04 07:52:25;;;;;;;41.92;30.77;;;;;;;;;;5014656;28;20722;-70
2021/06/04 07:54:51;;;;;;;35.65;28.42;;;;;;;;;;5027248;28;20197;-71
2021/06/04 07:57:18;;;;;;;39.65;28.33;;;;;;;;;;5016098;28;20194;-70
2021/06/04 07:59:43;;;;;;;40.10;30.42;;;;;;;;;;5022604;28;20201;-70
2021/06/04 08:02:09;;;;;;;44.13;30.33;;;;;;;;;;5016124;28;20568;-71
2021/06/04 08:04:35;;;;;;;37.83;29.23;;;;;;;;;;5024442;28;20194;-71
2021/06/04 08:07:00;;;;;;;43.10;30.83;;;;;;;;;;5006737;28;20854;-71
2021/06/04 08:09:27;;;;;;;40.63;31.65;;;;;;;;;;5024406;28;20181;-71
2021/06/04 08:11:59;;;;;;;41.88;30.25;;;;;;;;;;5015733;28;20182;-70
2021/06/04 08:14:26;;;;;;;40.08;29.98;;;;;;;;;;5023653;28;20273;-71
2021/06/04 08:16:54;;;;;;;38.67;29.02;;;;;;;;;;5015992;28;20209;-71
2021/06/04 08:19:21;;;;;;;38.45;28.92;;;;;;;;;;5019000;28;20261;-71
2021/06/04 08:21:49;;;;;;;35.95;27.92;;;;;;;;;;5020066;28;20185;-71
2021/06/04 08:24:19;;;;;;;40.97;27.70;;;;;;;;;;5020138;28;20216;-70
2021/06/04 08:26:45;;;;;;;32.50;23.50;;;;;;;;;;5022050;28;20197;-70
2021/06/04 08:29:11;;;;;;;30.27;21.95;;;;;;;;;;5011188;28;20186;-70
2021/06/04 08:31:38;;;;;;;32.65;24.38;;;;;;;;;;5020534;28;20205;-70
2021/06/04 08:34:03;;;;;;;35.92;24.58;;;;;;;;;;5013271;28;20526;-71
2021/06/04 08:36:32;;;;;;;37.58;24.73;;;;;;;;;;5023136;28;20277;-71
2021/06/04 08:39:01;;;;;;;29.15;23.17;;;;;;;;;;5012140;28;20186;-71
2021/06/04 08:42:07;;;;;;;32.78;23.08;;;;;;;;;;5023157;28;20316;-71
2021/06/04 08:45:03;;;;;;;31.95;23.33;;;;;;;;;;5032336;28;20233;-71
2021/06/04 08:47:34;;;;;;;29.58;21.88;;;;;;;;;;5022413;28;20194;-70
2021/06/04 08:50:26;;;;;;;31.65;20.77;;;;;;;;;;5017177;28;20247;-71
2021/06/04 08:52:57;;;;;;;26.38;21.00;;;;;;;;;;5021400;28;20190;-68
2021/06/04 08:55:33;;;;;;;29.70;20.08;;;;;;;;;;5011397;28;20593;-71
2021/06/04 08:58:53;;;;;;;26.02;17.80;;;;;;;;;;5020228;28;20194;-71
2021/06/04 09:01:27;;;;;;;21.48;14.20;;;;;;;;;;5019883;28;20796;-69
2021/06/04 09:03:58;;;;;;;19.38;14.13;;;;;;;;;;5022322;28;20248;-71
2021/06/04 09:06:29;;;;;;;18.50;14.48;;;;;;;;;;5016506;28;20902;-71
2021/06/04 09:09:00;;;;;;;17.75;13.82;;;;;;;;;;5023691;28;20185;-71
2021/06/04 09:11:34;;;;;;;20.67;15.30;;;;;;;;;;5017810;28;20201;-70
2021/06/04 09:13:59;;;;;;;18.13;12.45;;;;;;;;;;5024970;28;20189;-69
2021/06/04 09:16:43;;;;;;;20.88;13.45;;;;;;;;;;5015547;28;20528;-70
2021/06/04 09:19:13;;;;;;;21.73;13.48;;;;;;;;;;5028066;28;20193;-71
2021/06/04 09:21:41;;;;;;;20.35;13.27;;;;;;;;;;5016483;28;20198;-72
2021/06/04 09:24:15;;;;;;;16.73;13.43;;;;;;;;;;5027963;28;20205;-70
2021/06/04 09:26:41;;;;;;;21.67;15.65;;;;;;;;;;5013291;28;20185;-71
2021/06/04 09:29:06;;;;;;;22.40;15.60;;;;;;;;;;5025871;28;20256;-70
2021/06/04 09:31:35;;;;;;;21.52;16.48;;;;;;;;;;5018406;28;20193;-71
2021/06/04 09:34:31;;;;;;;24.23;17.15;;;;;;;;;;5024641;28;20201;-70
2021/06/04 09:37:05;;;;;;;20.73;16.13;;;;;;;;;;5018721;28;20673;-69
2021/06/04 09:39:39;;;;;;;20.88;15.30;;;;;;;;;;5028104;28;20229;-70
2021/06/04 09:42:26;;;;;;;20.80;15.95;;;;;;;;;;5020364;28;20234;-70
2021/06/04 09:45:26;;;;;;;23.33;16.83;;;;;;;;;;5027812;28;20665;-68
2021/06/04 09:48:11;;;;;;;20.48;15.18;;;;;;;;;;5017448;28;20194;-69
2021/06/04 09:50:48;;;;;;;22.30;16.85;;;;;;;;;;5026711;28;20447;-69
2021/06/04 09:53:19;;;;;;;19.85;17.50;;;;;;;;;;5018753;28;20637;-67
2021/06/04 09:55:48;;;;;;;26.05;17.70;;;;;;;;;;5030345;28;20696;-71
2021/06/04 09:58:14;;;;;;;23.70;17.98;;;;;;;;;;5016598;28;20198;-72
2021/06/04 10:01:07;;;;;;;23.27;18.45;;;;;;;;;;5030257;28;20536;-71
2021/06/04 10:03:42;;;;;;;24.27;18.23;;;;;;;;;;5019994;28;20196;-71
2021/06/04 10:06:10;;;;;;;25.33;18.70;;;;;;;;;;5028319;28;20201;-71
2021/06/04 10:08:45;;;;;;;25.33;17.88;;;;;;;;;;5014403;28;20223;-71
2021/06/04 10:11:29;;;;;;;26.25;19.33;;;;;;;;;;5026794;28;20186;-72
2021/06/04 10:14:13;;;;;;;22.00;18.48;;;;;;;;;;5018581;28;20573;-71
2021/06/04 10:19:43;;;;;;;21.48;17.73;;;;;;;;;;5018492;28;20194;-69
2021/06/04 10:22:14;;;;;;;24.90;18.55;;;;;;;;;;5024496;28;20215;-71
2021/06/04 10:24:48;;;;;;;22.73;17.80;;;;;;;;;;5018717;28;20584;-71
2021/06/04 10:27:25;;;;;;;28.00;18.08;;;;;;;;;;5023976;28;20646;-72
2021/06/04 10:30:08;;;;;;;22.48;17.98;;;;;;;;;;5017471;28;20217;-68
2021/06/04 10:33:04;;;;;;;20.33;17.95;;;;;;;;;;5025800;28;20237;-72
2021/06/04 10:35:38;;;;;;;21.80;17.10;;;;;;;;;;5017378;28;20198;-71
2021/06/04 10:38:07;;;;;;;23.85;19.63;;;;;;;;;;5025671;28;20226;-71
2021/06/04 10:40:45;;;;;;;23.48;18.95;;;;;;;;;;5017049;28;20186;-72
2021/06/04 10:43:21;;;;;;;21.60;17.70;;;;;;;;;;5023028;28;20774;-69
2021/06/04 10:45:54;;;;;;;20.40;16.85;;;;;;;;;;5014157;28;20201;-68
2021/06/04 10:48:49;;;;;;;21.02;16.05;;;;;;;;;;5023924;28;20233;-70
2021/06/04 10:51:36;;;;;;;20.45;15.57;;;;;;;;;;5017466;28;20182;-69
2021/06/04 10:54:29;;;;;;;23.80;16.58;;;;;;;;;;5025031;28;20703;-70
2021/06/04 10:57:11;;;;;;;19.05;14.23;;;;;;;;;;5015937;28;20194;-69
2021/06/04 10:59:54;;;;;;;15.27;12.70;;;;;;;;;;5029210;28;20189;-70
2021/06/04 11:02:37;;;;;;;19.67;14.55;;;;;;;;;;5011766;28;20210;-68
2021/06/04 11:05:42;;;;;;;17.83;13.70;;;;;;;;;;5023594;28;20206;-70
2021/06/04 11:08:32;;;;;;;16.35;12.15;;;;;;;;;;5025384;28;20649;-70
2021/06/04 11:11:10;;;;;;;19.10;12.90;;;;;;;;;;5017631;28;20209;-70
2021/06/04 11:13:44;;;;;;;20.13;15.55;;;;;;;;;;5029268;28;20648;-68
2021/06/04 11:16:30;;;;;;;18.35;14.02;;;;;;;;;;5016573;28;20676;-70
2021/06/04 11:19:11;;;;;;;18.52;14.38;;;;;;;;;;5022928;28;20174;-70
2021/06/04 11:21:43;;;;;;;19.33;13.73;;;;;;;;;;5013973;28;20186;-70
2021/06/04 11:24:38;;;;;;;20.30;15.10;;;;;;;;;;5028867;28;20692;-71
2021/06/04 11:27:04;;;;;;;22.25;14.80;;;;;;;;;;5016041;28;20190;-70
2021/06/04 11:29:39;;;;;;;20.15;14.63;;;;;;;;;;5025875;28;20276;-69
2021/06/04 11:32:13;;;;;;;19.70;14.40;;;;;;;;;;5013178;28;20181;-69
2021/06/04 11:34:55;;;;;;;17.23;14.70;;;;;;;;;;5028632;28;20175;-70
2021/06/04 11:37:39;;;;;;;15.73;12.65;;;;;;;;;;5011809;28;20658;-68
2021/06/04 11:40:12;;;;;;;21.55;13.65;;;;;;;;;;5022831;28;20209;-70
2021/06/04 11:43:01;;;;;;;16.58;14.02;;;;;;;;;;5018875;28;20228;-72
2021/06/04 11:45:29;;;;;;;22.73;13.27;;;;;;;;;;5027281;28;20217;-71
2021/06/04 11:48:15;;;;;;;16.60;13.07;;;;;;;;;;5018041;28;20189;-72
2021/06/04 11:50:40;;;;;;;16.83;12.55;;;;;;;;;;5028124;28;20194;-71
2021/06/04 11:53:22;;;;;;;19.38;13.55;;;;;;;;;;5016615;28;20213;-71
2021/06/04 11:55:47;;;;;;;20.70;15.27;;;;;;;;;;5025304;28;20190;-71
2021/06/04 11:58:28;;;;;;;18.08;14.02;;;;;;;;;;5015278;28;20247;-70
2021/06/04 12:01:16;;;;;;;15.38;13.48;;;;;;;;;;5025086;28;20222;-72
2021/06/04 12:03:46;;;;;;;16.88;13.95;;;;;;;;;;5019778;28;20205;-71
2021/06/04 12:06:24;;;;;;;17.55;12.40;;;;;;;;;;5020068;28;20713;-72
2021/06/04 12:08:51;;;;;;;15.90;12.13;;;;;;;;;;5016033;28;20193;-71
2021/06/04 12:11:16;;;;;;;14.68;12.07;;;;;;;;;;5021728;28;20596;-72
2021/06/04 12:14:05;;;;;;;16.42;14.10;;;;;;;;;;5016031;28;20178;-72
2021/06/04 12:16:32;;;;;;;16.75;12.38;;;;;;;;;;5023797;28;20194;-71
2021/06/04 12:19:00;;;;;;;14.65;12.57;;;;;;;;;;5016678;28;20592;-71
2021/06/04 12:21:38;;;;;;;15.68;12.52;;;;;;;;;;5019703;28;20212;-71
2021/06/04 12:24:16;;;;;;;14.27;11.80;;;;;;;;;;5024939;28;20263;-71
2021/06/04 12:26:49;;;;;;;19.45;14.13;;;;;;;;;;5024308;28;20189;-71
2021/06/04 12:29:20;;;;;;;16.38;13.55;;;;;;;;;;5030785;28;20663;-71
2021/06/04 12:32:02;;;;;;;13.73;12.07;;;;;;;;;;5012505;28;20187;-71
2021/06/04 12:34:47;;;;;;;16.63;12.63;;;;;;;;;;5025918;28;20186;-71
2021/06/04 12:37:18;;;;;;;15.95;11.85;;;;;;;;;;5018952;28;20547;-71
2021/06/04 12:39:58;;;;;;;15.50;12.30;;;;;;;;;;5021229;28;20285;-73
2021/06/04 12:42:26;;;;;;;13.45;11.98;;;;;;;;;;5021094;28;20228;-72
2021/06/04 12:45:29;;;;;;;15.30;11.95;;;;;;;;;;5019782;28;20344;-71
2021/06/04 12:48:27;;;;;;;15.07;11.63;;;;;;;;;;5021557;28;20671;-72
2021/06/04 12:50:55;;;;;;;15.60;11.57;;;;;;;;;;5014024;28;20228;-72
2021/06/04 12:53:32;;;;;;;14.23;12.63;;;;;;;;;;5019407;28;20239;-70
2021/06/04 12:56:00;;;;;;;15.95;13.32;;;;;;;;;;5011342;28;20189;-70
2021/06/04 12:58:36;;;;;;;14.95;12.98;;;;;;;;;;5024396;28;20184;-70
2021/06/04 13:01:17;;;;;;;17.83;13.32;;;;;;;;;;5011083;28;20213;-71
2021/06/04 13:03:46;;;;;;;17.60;13.35;;;;;;;;;;5019313;28;20257;-70
2021/06/04 13:06:20;;;;;;;16.00;13.02;;;;;;;;;;5011176;28;20265;-70
2021/06/04 13:08:48;;;;;;;13.00;11.40;;;;;;;;;;5024472;28;20264;-70
2021/06/04 13:11:31;;;;;;;13.57;11.02;;;;;;;;;;5019604;28;20194;-70
2021/06/04 13:13:56;;;;;;;17.63;11.70;;;;;;;;;;5021444;28;20607;-70
2021/06/04 13:16:26;;;;;;;15.35;11.57;;;;;;;;;;5020732;28;20282;-69
2021/06/04 13:18:54;;;;;;;16.95;11.77;;;;;;;;;;5014433;28;20197;-70
2021/06/04 13:21:39;;;;;;;17.60;11.65;;;;;;;;;;5019820;28;20541;-69
2021/06/04 13:24:17;;;;;;;15.77;11.27;;;;;;;;;;5013014;28;20724;-68
2021/06/04 13:26:46;;;;;;;14.77;12.55;;;;;;;;;;5023955;28;20212;-70
2021/06/04 13:29:38;;;;;;;16.17;11.43;;;;;;;;;;5016193;28;20544;-71
2021/06/04 13:32:11;;;;;;;15.73;12.23;;;;;;;;;;5022270;28;20191;-71
2021/06/04 13:34:53;;;;;;;15.88;12.18;;;;;;;;;;5011861;28;20579;-70
2021/06/04 13:37:28;;;;;;;15.95;11.77;;;;;;;;;;5022310;28;20170;-70
2021/06/04 13:39:54;;;;;;;13.77;11.20;;;;;;;;;;5013985;28;20650;-69
2021/06/04 13:42:24;;;;;;;14.70;11.25;;;;;;;;;;5021153;28;20252;-71
2021/06/04 13:44:51;;;;;;;14.95;11.48;;;;;;;;;;5013730;28;20202;-71
2021/06/04 13:47:41;;;;;;;13.93;10.63;;;;;;;;;;5022005;28;20186;-70
2021/06/04 13:50:28;;;;;;;14.05;11.95;;;;;;;;;;5014203;28;20197;-68
2021/06/04 13:53:02;;;;;;;18.67;11.77;;;;;;;;;;5022790;28;20186;-70
2021/06/04 13:55:30;;;;;;;12.80;10.38;;;;;;;;;;5011685;28;20182;-70
2021/06/04 13:58:18;;;;;;;12.95;10.88;;;;;;;;;;5022426;28;20185;-71
2021/06/04 14:01:07;;;;;;;16.38;11.98;;;;;;;;;;5013721;28;20543;-71
2021/06/04 14:03:33;;;;;;;12.88;10.95;;;;;;;;;;5019848;28;20174;-69
2021/06/04 14:06:26;;;;;;;18.63;12.00;;;;;;;;;;5015237;28;20228;-70
2021/06/04 14:09:03;;;;;;;15.20;10.85;;;;;;;;;;5023700;28;20182;-71
2021/06/04 14:11:30;;;;;;;13.82;10.82;;;;;;;;;;5012853;28;20663;-70
2021/06/04 14:14:00;;;;;;;14.07;11.15;;;;;;;;;;5025478;28;20194;-70
2021/06/04 14:16:32;;;;;;;17.38;11.15;;;;;;;;;;5014122;28;20638;-74
2021/06/04 14:18:58;;;;;;;14.40;11.18;;;;;;;;;;5026517;28;20217;-68
2021/06/04 14:21:34;;;;;;;14.23;11.30;;;;;;;;;;5017139;28;20221;-69
2021/06/04 14:24:08;;;;;;;16.27;12.05;;;;;;;;;;5024787;28;20259;-68
2021/06/04 14:26:55;;;;;;;13.68;11.60;;;;;;;;;;5016037;28;20556;-69
2021/06/04 14:29:20;;;;;;;16.05;11.55;;;;;;;;;;5027653;28;21016;-69
2021/06/04 14:31:48;;;;;;;12.45;10.45;;;;;;;;;;5018244;28;20186;-70
2021/06/04 14:34:15;;;;;;;15.15;10.25;;;;;;;;;;5024111;28;20711;-69
2021/06/04 14:36:40;;;;;;;13.50;11.00;;;;;;;;;;5014147;28;20733;-69
2021/06/04 14:39:28;;;;;;;16.15;13.25;;;;;;;;;;5024836;28;20269;-69
2021/06/04 14:41:56;;;;;;;16.13;11.02;;;;;;;;;;5015930;28;20230;-68
2021/06/04 14:44:21;;;;;;;14.02;10.98;;;;;;;;;;5025518;28;20202;-68
2021/06/04 14:46:47;;;;;;;17.80;12.07;;;;;;;;;;5019099;28;20261;-70
2021/06/04 14:49:13;;;;;;;15.23;11.32;;;;;;;;;;5027398;28;20604;-70